Latest Coastal Weather Observations for Double Island Point

IDQ60701

Issued at 2:32 pm EST Sunday 26 June 2016 (issued every 10 minutes, with the page automatically refreshed every 10 minutes)

About coastal observations | Map of coastal stations | Coastal observations for QLD | Marine services | Other Formats
Station Details ID: 040068 Name: DOUBLE ISLAND POINT LIGHTHOUSE Lat: -25.93 Lon: 153.19 Height: 95.64 m
Data from the previous 72 hours. | See also: Recent months at Double Island Point
Date/Time
EST
Temp
°C
Wind Pressure Rain since
9am
mm
Weather Cloud Vis
km
Sea
Height
m
Swell
Dir  Spd
kts
Gust
kts
hPa Trend Height
m
Period
s
Dir
26/02:00pm 17.1 SSE 9 12 1017.3 - 0.0 - - - - - - -
26/01:30pm 16.7 SSE 10 12 1017.7 - 0.0 - - - - - - -
26/01:00pm 16.7 SSE 9 11 1018.4 - 0.0 - - - - - - -
26/12:30pm 16.3 S 12 14 1019.0 - 0.0 - - - - - - -
26/12:00pm 16.3 S 11 14 1019.3 - 0.0 - - - - - - -
26/11:30am 16.0 S 12 15 1019.6 - 0.0 - - - - - - -
26/11:00am 15.8 S 13 17 1020.0 - 0.0 - - - - - - -
26/10:30am 16.2 SSE 12 16 1019.8 - 0.0 - - - - - - -
26/10:00am 16.0 SSE 12 16 1020.3 - 0.0 - - - - - - -
26/09:30am 15.9 SSE 14 17 1020.6 - 0.0 - - - - - - -
26/09:00am 15.7 SSE 13 17 1020.6 - 0.0 - - - - - - -
26/08:30am 15.1 S 11 13 1020.1 - 0.0 - - - - - - -
26/08:00am 14.5 S 11 15 1020.2 - 0.0 - - - - - - -
26/07:30am 13.7 S 12 15 1020.4 - 0.0 - - - - - - -
26/07:00am 13.5 S 13 15 1019.9 - 0.0 - - - - - - -
26/06:30am 13.3 S 14 16 1019.3 - 0.0 - - - - - - -
26/06:00am 12.7 SSW 13 15 1019.0 - 0.0 - - - - - - -
26/05:30am 12.5 S 13 15 1018.3 - 0.0 - - - - - - -
26/05:00am 12.4 S 14 16 1018.3 - 0.0 - - - - - - -
26/04:30am 12.6 SSW 12 16 1018.4 - 0.0 - - - - - - -
26/04:00am 12.6 S 13 14 1017.9 - 0.0 - - - - - - -
26/03:30am 12.4 S 13 15 1017.6 - 0.0 - - - - - - -
26/03:00am 12.8 SSW 14 17 1018.5 - 0.0 - - - - - - -
26/02:30am 12.6 S 15 16 1018.0 - 0.0 - - - - - - -
26/02:00am 12.3 S 15 17 1017.8 - 0.0 - - - - - - -
26/01:30am 12.3 S 14 16 1018.2 - 0.0 - - - - - - -
26/01:00am 12.2 S 13 16 1018.4 - 0.0 - - - - - - -
26/12:30am 12.4 SSW 14 16 1018.6 - 0.0 - - - - - - -
26/12:00am 12.8 SSW 14 17 1018.8 - 0.0 - - - - - - -
 
Date/Time
EST
Temp
°C
Wind Pressure Rain since
9am
mm
Weather Cloud Vis
km
Sea
Height
m
Swell
Dir  Spd
kts
Gust
kts
hPa Trend Height
m
Period
s
Dir
25/11:30pm 12.8 SSW 15 18 1018.8 - 0.0 - - - - - - -
25/11:00pm 13.1 SSW 15 18 1019.2 - 0.0 - - - - - - -
25/10:30pm 13.5 SSW 15 17 1019.3 - 0.0 - - - - - - -
25/10:00pm 13.6 SSW 14 17 1019.5 - 0.0 - - - - - - -
25/09:30pm 13.9 SSW 15 18 1019.4 - 0.0 - - - - - - -
25/09:00pm 13.9 SSW 15 17 1019.4 - 0.0 - - - - - - -
25/08:30pm 13.5 SSW 13 15 1019.3 - 0.0 - - - - - - -
25/08:00pm 14.3 S 7 9 1019.2 - 0.0 - - - - - - -
25/07:30pm 14.8 S 8 9 1019.0 - 0.0 - - - - - - -
25/07:00pm 14.8 S 8 9 1018.7 - 0.0 - - - - - - -
25/06:30pm 14.8 SSW 7 8 1018.4 - 0.0 - - - - - - -
25/06:00pm 14.8 SSW 8 9 1017.9 - 0.0 - - - - - - -
25/05:30pm 14.5 S 6 8 1017.8 - 0.0 - - - - - - -
25/05:00pm 14.7 SSW 7 7 1017.5 - 0.0 - - - - - - -
25/04:30pm 15.1 SSW 8 9 1017.3 - 0.0 - - - - - - -
25/04:00pm 16.0 SSW 7 10 1016.9 - 0.0 - - - - - - -
25/03:30pm 16.2 S 8 11 1016.7 - 0.0 - - - - - - -
25/03:00pm 16.4 SSW 7 11 1016.6 - 0.0 - - - - - - -
25/02:30pm 16.1 SSW 7 10 1016.6 - 0.0 - - - - - - -
25/02:00pm 16.5 S 7 10 1016.6 - 0.0 - - - - - - -
25/01:30pm 16.3 S 8 14 1016.9 - 0.0 - - - - - - -
25/01:00pm 16.2 S 9 13 1017.1 - 0.0 - - - - - - -
25/12:30pm 16.1 SSW 9 12 1017.5 - 0.0 - - - - - - -
25/12:00pm 15.3 SW 12 16 1018.1 - 0.0 - - - - - - -
25/11:30am 15.7 WSW 10 16 1018.5 - 0.0 - - - - - - -
25/11:00am 14.7 SW 10 14 1018.8 - 0.0 - - - - - - -
25/10:30am 13.9 SSW 10 16 1018.9 - 0.0 - - - - - - -
25/10:00am 13.7 SW 9 14 1018.8 - 0.0 - - - - - - -
25/09:30am 13.0 SSW 10 15 1019.1 - 0.0 - - - - - - -
25/09:00am 12.8 SW 8 13 1019.1 - 0.0 - - - - - - -
25/08:30am 12.0 SW 11 14 1018.7 - 0.0 - - - - - - -
25/08:00am 11.5 SW 15 18 1018.3 - 0.0 - - - - - - -
25/07:30am 11.4 SW 16 19 1017.8 - 0.0 - - - - - - -
25/07:00am 11.4 SW 16 21 1017.7 - 0.0 - - - - - - -
25/06:30am 11.3 SW 15 18 1017.2 - 0.0 - - - - - - -
25/06:00am 12.0 SW 18 22 1016.5 - 0.0 - - - - - - -
25/05:30am 12.1 SW 17 23 1016.1 - 0.0 - - - - - - -
25/05:00am 12.1 SW 15 21 1015.9 - 0.0 - - - - - - -
25/04:47am 12.5 WSW 15 22 1015.6 - 0.0 - - - - - - -
25/04:30am 12.4 SW 8 11 1015.7 - 0.0 - - - - - - -
25/04:00am 12.9 SW 11 16 1015.5 - 0.0 - - - - - - -
25/03:30am 12.8 SW 11 14 1015.3 - 0.0 - - - - - - -
25/03:00am 13.1 SW 8 10 1015.1 - 0.0 - - - - - - -
25/02:30am 13.5 SW 8 12 1015.0 - 0.0 - - - - - - -
25/02:00am 14.1 SW 10 15 1014.7 - 0.0 - - - - - - -
25/01:30am 14.4 WSW 9 14 1014.6 - 0.0 - - - - - - -
25/01:00am 15.1 WSW 13 20 1014.7 - 0.0 - - - - - - -
25/12:30am 15.1 SW 12 21 1014.7 - 0.0 - - - - - - -
25/12:00am 15.6 SW 10 19 1014.7 - 0.0 - - - - - - -
 
Date/Time
EST
Temp
°C
Wind Pressure Rain since
9am
mm
Weather Cloud Vis
km
Sea
Height
m
Swell
Dir  Spd
kts
Gust
kts
hPa Trend Height
m
Period
s
Dir
24/11:30pm 16.1 SW 9 17 1014.6 - 0.0 - - - - - - -
24/11:00pm 16.4 SW 9 13 1014.6 - 0.0 - - - - - - -
24/10:30pm 17.1 SSW 7 9 1014.7 - 0.0 - - - - - - -
24/10:00pm 18.0 SW 12 18 1014.6 - 0.0 - - - - - - -
24/09:30pm 18.3 SW 7 17 1014.2 - 0.0 - - - - - - -
24/09:00pm 18.4 SW 10 16 1014.1 - 0.0 - - - - - - -
24/08:30pm 19.0 SW 10 15 1013.8 - 0.0 - - - - - - -
24/08:00pm 19.4 SW 9 15 1013.3 - 0.0 - - - - - - -
24/07:30pm 19.8 SW 10 15 1013.1 - 0.0 - - - - - - -
24/07:00pm 20.1 WSW 7 9 1012.6 - 0.0 - - - - - - -
24/06:30pm 20.0 S 5 6 1012.3 - 0.0 - - - - - - -
24/06:00pm 20.3 WNW 7 10 1011.8 - 0.0 - - - - - - -
24/05:30pm 20.9 W 7 12 1011.3 - 0.0 - - - - - - -
24/05:00pm 21.0 WNW 10 13 1010.8 - 0.0 - - - - - - -
24/04:30pm 21.9 WNW 11 16 1010.5 - 0.0 - - - - - - -
24/04:00pm 22.4 W 8 15 1010.5 - 0.0 - - - - - - -
24/03:30pm 22.2 WNW 9 17 1010.5 - 0.0 - - - - - - -
24/03:00pm 22.5 W 11 20 1010.6 - 0.0 - - - - - - -
24/02:30pm 22.4 W 10 18 1010.6 - 0.0 - - - - - - -
24/02:00pm 22.4 WNW 9 17 1010.7 - 0.0 - - - - - - -
24/01:30pm 21.8 W 16 27 1010.8 - 0.0 - - - - - - -
24/01:18pm 22.0 W 11 25 1010.9 - 0.0 - - - - - - -
24/01:00pm 21.5 WNW 11 17 1011.4 - 0.0 - - - - - - -
24/12:30pm 21.8 WNW 9 18 1011.7 - 0.0 - - - - - - -
24/12:00pm 20.5 W 7 13 1012.2 - 0.0 - - - - - - -
24/11:30am 20.5 WNW 8 13 1012.7 - 0.0 - - - - - - -
24/11:00am 20.0 WNW 10 15 1013.2 - 0.0 - - - - - - -
24/10:30am 19.5 NW 7 10 1013.8 - 0.0 - - - - - - -
24/10:00am 18.5 NW 9 12 1013.9 - 0.0 - - - - - - -
24/09:30am 18.2 NW 10 13 1014.0 - 0.0 - - - - - - -
24/09:00am 17.8 NW 10 13 1013.6 - 0.0 - - - - - - -
24/08:30am 17.8 NW 11 14 1013.7 - 0.0 - - - - - - -
24/08:00am 17.6 NW 10 14 1013.6 - 0.0 - - - - - - -
24/07:30am 17.4 NW 12 15 1013.3 - 0.0 - - - - - - -
24/07:00am 17.3 NW 14 18 1012.7 - 0.0 - - - - - - -
24/06:30am 17.2 NW 13 17 1012.7 - 0.0 - - - - - - -
24/06:00am 17.0 NW 13 18 1012.1 - 0.0 - - - - - - -
24/05:30am 17.0 WNW 14 16 1012.0 - 0.0 - - - - - - -
24/05:00am 17.3 WNW 13 17 1011.9 - 0.0 - - - - - - -
24/04:30am 17.3 NW 16 18 1011.7 - 0.0 - - - - - - -
24/04:00am 17.7 NW 13 19 1011.8 - 0.0 - - - - - - -
24/03:30am 17.2 WNW 11 15 1012.0 - 0.0 - - - - - - -
24/03:00am 17.2 NW 11 13 1012.0 - 0.0 - - - - - - -
24/02:30am 17.5 NW 11 13 1012.1 - 0.0 - - - - - - -
24/02:00am 17.5 NW 9 12 1012.5 - 0.0 - - - - - - -
24/01:30am 17.8 NW 11 15 1012.8 - 0.0 - - - - - - -
24/01:00am 17.9 NW 11 14 1012.8 - 0.0 - - - - - - -
24/12:30am 17.9 NNW 12 14 1012.7 - 0.0 - - - - - - -
24/12:00am 18.3 NNW 13 16 1013.1 - 0.0 - - - - - - -
 
Date/Time
EST
Temp
°C
Wind Pressure Rain since
9am
mm
Weather Cloud Vis
km
Sea
Height
m
Swell
Dir  Spd
kts
Gust
kts
hPa Trend Height
m
Period
s
Dir
23/11:30pm 18.1 NNW 13 15 1013.3 - 0.0 - - - - - - -
23/11:00pm 17.7 NNW 11 13 1013.5 - 0.0 - - - - - - -
23/10:30pm 18.0 NNW 12 14 1013.7 - 0.0 - - - - - - -
23/10:00pm 18.4 NW 10 13 1014.2 - 0.0 - - - - - - -
23/09:30pm 19.1 N 4 6 1013.9 - 0.0 - - - - - - -
23/09:00pm 19.2 N 5 7 1013.6 - 0.0 - - - - - - -
23/08:30pm 18.9 N 5 9 1013.6 - 0.0 - - - - - - -
23/08:00pm 18.8 N 6 11 1013.6 - 0.0 - - - - - - -
23/07:30pm 18.9 N 10 12 1013.7 - 0.0 - - - - - - -
23/07:00pm 18.9 NNE 13 15 1013.2 - 0.0 - - - - - - -
23/06:30pm 18.7 NNE 10 13 1013.6 - 0.0 - - - - - - -
23/06:00pm 18.7 NE 7 9 1013.3 - 0.0 - - - - - - -
23/05:30pm 19.2 ENE 9 12 1012.8 - 0.0 - - - - - - -
23/05:00pm 19.2 ENE 9 11 1012.6 - 0.0 - - - - - - -
23/04:30pm 19.7 NE 8 9 1012.5 - 0.0 - - - - - - -
23/04:00pm 20.4 NE 8 12 1012.0 - 0.0 - - - - - - -
23/03:30pm 20.2 E 11 13 1012.1 - 0.0 - - - - - - -
23/03:00pm 20.5 ENE 7 10 1012.6 - 0.0 - - - - - - -

Other Formats:

Comma delimited format used in spreadsheet applications
http://www.bom.gov.au/fwo/IDQ60701/IDQ60701.94584.axf

JavaScript Object Notation format (JSON) in row-major order
http://www.bom.gov.au/fwo/IDQ60701/IDQ60701.94584.json